Time;durP1;ratioP1;P1;durP2;ratioP2;P2;SDS_P1;SDS_P2;PMS_P1;PMS_P2;Temp;Humidity;BMP_temperature;BMP_pressure;BME280_temperature;BME280_humidity;BME280_pressure;Samples;Min_cycle;Max_cycle;Signal;HPM_P1;HPM_P2
2022/10/21 00:01:29;;;;;;;;;;;179.70;2252.80;;;;;;5090392;28;19946;-60
2022/10/21 00:03:54;;;;;;;;;;;179.70;2252.80;;;;;;5090014;28;19994;-60
2022/10/21 00:06:20;;;;;;;;;;;179.70;2252.80;;;;;;5090380;28;19912;-59
2022/10/21 00:08:45;;;;;;;;;;;179.70;2252.80;;;;;;5089851;28;19927;-59
2022/10/21 00:11:11;;;;;;;;;;;179.70;2252.80;;;;;;5090263;28;20381;-59
2022/10/21 00:13:40;;;;;;;;;;;179.60;2252.80;;;;;;5090115;28;19999;-60
2022/10/21 00:16:07;;;;;;;;;;;179.60;2252.80;;;;;;5090105;28;19915;-60
2022/10/21 00:18:33;;;;;;;;;;;179.60;2252.80;;;;;;5089974;28;20392;-59
2022/10/21 00:20:59;;;;;;;;;;;179.60;2252.80;;;;;;5090652;28;20007;-59
2022/10/21 00:23:25;;;;;;;;;;;179.50;2252.80;;;;;;5093927;28;19962;-60
2022/10/21 00:25:54;;;;;;;;;;;179.60;2252.80;;;;;;5094085;28;19908;-60
2022/10/21 00:28:20;;;;;;;;;;;179.60;2252.80;;;;;;5094041;28;19916;-60
2022/10/21 00:30:45;;;;;;;;;;;179.50;2252.80;;;;;;5093664;28;19912;-60
2022/10/21 00:33:12;;;;;;;;;;;179.50;2252.80;;;;;;5093666;28;19920;-59
2022/10/21 00:35:37;;;;;;;;;;;179.40;2252.80;;;;;;5093697;28;19913;-59
2022/10/21 00:38:03;;;;;;;;;;;179.40;2252.80;;;;;;5093604;28;20010;-60
2022/10/21 00:40:29;;;;;;;;;;;179.40;2252.80;;;;;;5093647;28;19908;-59
2022/10/21 00:42:54;;;;;;;;;;;179.30;2252.80;;;;;;5093607;28;19908;-59
2022/10/21 00:45:25;;;;;;;;;;;179.40;2252.80;;;;;;5093620;28;20296;-59
2022/10/21 00:47:52;;;;;;;;;;;179.40;2252.80;;;;;;5093513;28;19916;-59
2022/10/21 00:50:24;;;;;;;;;;;179.30;2252.80;;;;;;5093659;28;19908;-59
2022/10/21 00:52:49;;;;;;;;;;;179.30;2252.80;;;;;;5093718;28;19912;-59
2022/10/21 00:55:15;;;;;;;;;;;179.20;2252.80;;;;;;5093326;28;20406;-58
2022/10/21 00:57:41;;;;;;;;;;;179.20;2252.80;;;;;;5093453;28;20358;-59
2022/10/21 01:00:06;;;;;;;;;;;154.50;2252.80;;;;;;5093203;28;19915;-59
2022/10/21 01:02:32;;;;;;;;;;;154.50;2252.80;;;;;;5093090;28;20007;-60
2022/10/21 01:04:59;;;;;;;;;;;154.50;2252.80;;;;;;5093035;28;20298;-60
2022/10/21 01:07:25;;;;;;;;;;;179.20;2252.80;;;;;;5092861;28;20354;-59
2022/10/21 01:09:51;;;;;;;;;;;154.50;2252.80;;;;;;5093258;28;20029;-59
2022/10/21 01:12:37;;;;;;;;;;;154.50;2252.80;;;;;;5093032;28;20368;-59
2022/10/21 01:15:08;;;;;;;;;;;154.40;2252.80;;;;;;5092378;28;19912;-60
2022/10/21 01:17:36;;;;;;;;;;;154.40;2252.80;;;;;;5092727;28;19908;-60
2022/10/21 01:20:07;;;;;;;;;;;154.40;2252.80;;;;;;5093148;28;20439;-59
2022/10/21 01:22:51;;;;;;;;;;;154.40;2252.80;;;;;;5092727;28;19947;-60
2022/10/21 01:25:17;;;;;;;;;;;154.40;2252.80;;;;;;5093009;28;20276;-59
2022/10/21 01:28:05;;;;;;;;;;;154.40;2252.80;;;;;;5092441;28;19916;-59
2022/10/21 01:30:51;;;;;;;;;;;154.30;2252.80;;;;;;5092641;28;19919;-59
2022/10/21 01:33:37;;;;;;;;;;;154.30;2252.80;;;;;;5048893;28;19913;-60
2022/10/21 01:36:08;;;;;;;;;;;154.30;2252.80;;;;;;5049993;28;19916;-60
2022/10/21 01:38:34;;;;;;;;;;;154.30;2252.80;;;;;;5049966;28;19909;-60
2022/10/21 01:41:03;;;;;;;;;;;154.20;2252.80;;;;;;5050271;28;20322;-59
2022/10/21 01:43:31;;;;;;;;;;;154.30;2252.80;;;;;;5050016;28;20004;-59
2022/10/21 01:45:59;;;;;;;;;;;154.30;2252.80;;;;;;5049963;28;19908;-59
2022/10/21 01:48:31;;;;;;;;;;;154.20;2252.80;;;;;;5049650;28;19917;-60
2022/10/21 01:51:01;;;;;;;;;;;154.30;2252.80;;;;;;5049846;28;19912;-59
2022/10/21 01:53:28;;;;;;;;;;;154.20;2252.80;;;;;;5049772;28;19959;-60
2022/10/21 01:55:56;;;;;;;;;;;154.10;2252.80;;;;;;5049728;28;19938;-59
2022/10/21 01:58:23;;;;;;;;;;;154.10;2252.80;;;;;;5049943;28;20471;-59
2022/10/21 02:00:50;;;;;;;;;;;154.10;2252.80;;;;;;5049859;28;19909;-59
2022/10/21 02:03:19;;;;;;;;;;;154.00;2252.80;;;;;;5049339;28;19924;-59
2022/10/21 02:05:45;;;;;;;;;;;154.00;2252.80;;;;;;5049375;28;20046;-59
2022/10/21 02:08:11;;;;;;;;;;;153.90;2252.80;;;;;;5049481;28;20003;-59
2022/10/21 02:10:38;;;;;;;;;;;153.90;2252.80;;;;;;5074872;28;19921;-59
2022/10/21 02:13:07;;;;;;;;;;;153.90;2252.80;;;;;;5091712;28;19917;-60
2022/10/21 02:15:33;;;;;;;;;;;153.80;2252.80;;;;;;5091756;28;20358;-60
2022/10/21 02:18:09;;;;;;;;;;;153.80;2252.80;;;;;;5091651;28;20423;-59
2022/10/21 02:20:41;;;;;;;;;;;153.80;2252.80;;;;;;5091549;28;19908;-59
2022/10/21 02:23:07;;;;;;;;;;;153.80;2252.80;;;;;;5091327;28;19919;-59
2022/10/21 02:25:35;;;;;;;;;;;153.80;2252.80;;;;;;5091435;28;19915;-60
2022/10/21 02:28:00;;;;;;;;;;;153.70;2252.80;;;;;;5091476;28;19916;-60
2022/10/21 02:30:30;;;;;;;;;;;153.70;2252.80;;;;;;5091403;28;19912;-59
2022/10/21 02:32:59;;;;;;;;;;;153.80;2252.80;;;;;;5091145;28;19919;-60
2022/10/21 02:35:31;;;;;;;;;;;153.70;2252.80;;;;;;5091284;28;20014;-60
2022/10/21 02:38:02;;;;;;;;;;;153.70;2252.80;;;;;;5091408;28;19912;-59
2022/10/21 02:40:30;;;;;;;;;;;153.70;2252.80;;;;;;5091393;28;19915;-59
2022/10/21 02:42:58;;;;;;;;;;;153.60;2252.80;;;;;;5091152;28;19916;-60
2022/10/21 02:45:25;;;;;;;;;;;153.60;2252.80;;;;;;5090947;28;19908;-59
2022/10/21 02:47:51;;;;;;;;;;;153.60;2252.80;;;;;;5091298;28;19962;-59
2022/10/21 02:50:16;;;;;;;;;;;128.90;2252.80;;;;;;5090274;28;19912;-59
2022/10/21 02:52:42;;;;;;;;;;;128.90;2252.80;;;;;;5091105;28;19912;-60
2022/10/21 02:55:08;;;;;;;;;;;128.90;2252.80;;;;;;5091242;28;19909;-59
2022/10/21 02:57:33;;;;;;;;;;;128.80;2252.80;;;;;;5091002;28;19908;-60
2022/10/21 02:59:59;;;;;;;;;;;128.80;2252.80;;;;;;5091127;28;19991;-60
2022/10/21 03:02:24;;;;;;;;;;;128.80;2252.80;;;;;;5090936;28;20061;-60
2022/10/21 03:04:50;;;;;;;;;;;128.70;2252.80;;;;;;5090909;28;20263;-59
2022/10/21 03:07:15;;;;;;;;;;;128.90;2252.80;;;;;;5090688;28;19951;-59
2022/10/21 03:09:41;;;;;;;;;;;128.70;2252.80;;;;;;5090553;28;19956;-60
2022/10/21 03:12:06;;;;;;;;;;;128.60;2252.80;;;;;;5090834;28;19908;-60
2022/10/21 03:14:32;;;;;;;;;;;128.60;2252.80;;;;;;5090641;28;19908;-59
2022/10/21 03:16:57;;;;;;;;;;;128.60;2252.80;;;;;;5090876;28;19958;-59
2022/10/21 03:19:23;;;;;;;;;;;128.50;2252.80;;;;;;5090440;28;20346;-60
2022/10/21 03:21:49;;;;;;;;;;;128.60;2252.80;;;;;;5090959;28;20487;-59
2022/10/21 03:24:14;;;;;;;;;;;128.60;2252.80;;;;;;5090541;28;20370;-60
2022/10/21 03:26:40;;;;;;;;;;;128.60;2252.80;;;;;;5090596;28;20380;-59
2022/10/21 03:29:05;;;;;;;;;;;128.50;2252.80;;;;;;5090404;28;19935;-60
2022/10/21 03:31:31;;;;;;;;;;;128.60;2252.80;;;;;;5090420;28;19908;-60
2022/10/21 03:33:56;;;;;;;;;;;128.50;2252.80;;;;;;5090360;28;19935;-60
2022/10/21 03:36:22;;;;;;;;;;;128.60;2252.80;;;;;;5090567;28;19999;-60
2022/10/21 03:38:47;;;;;;;;;;;128.50;2252.80;;;;;;5090606;28;19908;-59
2022/10/21 03:41:13;;;;;;;;;;;128.40;2252.80;;;;;;5090283;28;19908;-60
2022/10/21 03:43:38;;;;;;;;;;;128.40;2252.80;;;;;;5090637;28;19908;-59
2022/10/21 03:46:04;;;;;;;;;;;128.40;2252.80;;;;;;5090364;28;20374;-59
2022/10/21 03:48:29;;;;;;;;;;;128.20;2252.80;;;;;;5090261;28;19950;-59
2022/10/21 03:50:55;;;;;;;;;;;128.20;2252.80;;;;;;5090232;28;19908;-59
2022/10/21 03:53:21;;;;;;;;;;;103.30;2227.20;;;;;;5090407;28;19961;-59
2022/10/21 03:55:48;;;;;;;;;;;128.00;2252.80;;;;;;5090625;28;19954;-59
2022/10/21 03:58:14;;;;;;;;;;;128.00;2252.80;;;;;;5094346;28;20427;-59
2022/10/21 04:00:40;;;;;;;;;;;128.00;2252.80;;;;;;5094431;28;19908;-59
2022/10/21 04:03:05;;;;;;;;;;;103.30;2227.20;;;;;;5094134;28;19912;-60
2022/10/21 04:05:31;;;;;;;;;;;103.10;2227.20;;;;;;5094269;28;19912;-59
2022/10/21 04:07:56;;;;;;;;;;;103.20;2227.20;;;;;;5094098;28;19916;-59
2022/10/21 04:10:22;;;;;;;;;;;103.20;2227.20;;;;;;5093973;28;19959;-60
2022/10/21 04:12:47;;;;;;;;;;;103.20;2227.20;;;;;;5094447;28;19908;-59
2022/10/21 04:15:13;;;;;;;;;;;103.20;2227.20;;;;;;5094103;28;20281;-60
2022/10/21 04:17:39;;;;;;;;;;;103.20;2227.20;;;;;;5094105;28;19915;-59
2022/10/21 04:20:05;;;;;;;;;;;103.20;2227.20;;;;;;5093901;28;19914;-59
2022/10/21 04:22:30;;;;;;;;;;;103.10;2227.20;;;;;;5094130;28;19912;-59
2022/10/21 04:24:56;;;;;;;;;;;103.10;2227.20;;;;;;5093927;28;19955;-60
2022/10/21 04:27:21;;;;;;;;;;;103.10;2227.20;;;;;;5093802;28;19942;-60
2022/10/21 04:29:47;;;;;;;;;;;103.20;2227.20;;;;;;5093984;28;19912;-59
2022/10/21 04:32:12;;;;;;;;;;;103.20;2227.20;;;;;;5093717;28;19915;-60
2022/10/21 04:34:38;;;;;;;;;;;103.10;2227.20;;;;;;5093546;28;19915;-59
2022/10/21 04:37:03;;;;;;;;;;;103.00;2227.20;;;;;;5093532;28;20332;-60
2022/10/21 04:39:29;;;;;;;;;;;103.00;2227.20;;;;;;5093930;28;19912;-59
2022/10/21 04:41:55;;;;;;;;;;;102.90;2227.20;;;;;;5093644;28;20449;-59
2022/10/21 04:44:20;;;;;;;;;;;103.00;2227.20;;;;;;5093810;28;20270;-59
2022/10/21 04:46:46;;;;;;;;;;;103.10;2227.20;;;;;;5093392;28;20365;-59
2022/10/21 04:49:12;;;;;;;;;;;103.00;2227.20;;;;;;5093351;28;19951;-59
2022/10/21 04:51:37;;;;;;;;;;;103.10;2227.20;;;;;;5093453;28;19923;-59
2022/10/21 04:54:03;;;;;;;;;;;103.10;2227.20;;;;;;5093225;28;19915;-59
2022/10/21 04:56:29;;;;;;;;;;;103.10;2227.20;;;;;;5093405;28;19908;-59
2022/10/21 04:58:54;;;;;;;;;;;103.10;2227.20;;;;;;5093240;28;19912;-59
2022/10/21 05:01:20;;;;;;;;;;;103.00;2227.20;;;;;;5093421;28;19908;-59
2022/10/21 05:03:45;;;;;;;;;;;103.00;2227.20;;;;;;5091452;28;19935;-59
2022/10/21 05:06:11;;;;;;;;;;;103.10;2227.20;;;;;;5093188;28;19917;-59
2022/10/21 05:08:36;;;;;;;;;;;103.10;2227.20;;;;;;5091616;28;19916;-59
2022/10/21 05:11:02;;;;;;;;;;;103.10;2227.20;;;;;;5092813;28;20007;-60
2022/10/21 05:13:28;;;;;;;;;;;103.00;2227.20;;;;;;5093340;28;19915;-60
2022/10/21 05:15:57;;;;;;;;;;;103.10;2227.20;;;;;;5092751;28;19908;-59
2022/10/21 05:18:23;;;;;;;;;;;103.20;2227.20;;;;;;5092741;28;19915;-59
2022/10/21 05:20:49;;;;;;;;;;;103.10;2227.20;;;;;;5092939;28;19908;-59
2022/10/21 05:23:15;;;;;;;;;;;103.20;2227.20;;;;;;5092684;28;20370;-59
2022/10/21 05:25:42;;;;;;;;;;;103.30;2227.20;;;;;;5091864;28;19958;-59
2022/10/21 05:28:08;;;;;;;;;;;103.20;2227.20;;;;;;5092644;28;19916;-59
2022/10/21 05:30:33;;;;;;;;;;;103.20;2227.20;;;;;;5092707;28;20021;-58
2022/10/21 05:32:59;;;;;;;;;;;103.30;2227.20;;;;;;5092466;28;19908;-59
2022/10/21 05:35:25;;;;;;;;;;;103.30;2227.20;;;;;;5092339;28;19959;-59
2022/10/21 05:37:50;;;;;;;;;;;103.30;2227.20;;;;;;5092677;28;19915;-59
2022/10/21 05:40:17;;;;;;;;;;;128.00;2252.80;;;;;;5092446;28;19908;-60
2022/10/21 05:42:43;;;;;;;;;;;103.30;2227.20;;;;;;5092607;28;19912;-60
2022/10/21 05:45:08;;;;;;;;;;;128.00;2252.80;;;;;;5092427;28;20286;-59
2022/10/21 05:47:34;;;;;;;;;;;128.10;2252.80;;;;;;5092021;28;20378;-59
2022/10/21 05:50:00;;;;;;;;;;;128.10;2252.80;;;;;;5092479;28;20373;-60
2022/10/21 05:52:25;;;;;;;;;;;128.00;2252.80;;;;;;5092145;28;20328;-59
2022/10/21 05:54:51;;;;;;;;;;;128.10;2252.80;;;;;;5092353;28;19916;-59
2022/10/21 05:57:16;;;;;;;;;;;128.30;2252.80;;;;;;5092135;28;19912;-60
2022/10/21 05:59:42;;;;;;;;;;;128.20;2252.80;;;;;;5092035;28;19912;-60
2022/10/21 06:02:08;;;;;;;;;;;128.30;2252.80;;;;;;5092092;28;19910;-59
2022/10/21 06:04:33;;;;;;;;;;;128.30;2252.80;;;;;;5091728;28;19920;-60
2022/10/21 06:06:59;;;;;;;;;;;128.40;2252.80;;;;;;5091985;28;20396;-59
2022/10/21 06:09:24;;;;;;;;;;;128.60;2252.80;;;;;;5091664;28;20274;-59
2022/10/21 06:11:50;;;;;;;;;;;128.70;2252.80;;;;;;5091994;28;19948;-59
2022/10/21 06:14:16;;;;;;;;;;;128.80;2252.80;;;;;;5091719;28;19912;-60
2022/10/21 06:16:41;;;;;;;;;;;128.90;2252.80;;;;;;5091642;28;20259;-60
2022/10/21 06:19:07;;;;;;;;;;;153.60;2252.80;;;;;;5091386;28;19908;-60
2022/10/21 06:21:32;;;;;;;;;;;153.80;2252.80;;;;;;5091593;28;19999;-60
2022/10/21 06:23:58;;;;;;;;;;;154.10;2252.80;;;;;;5091681;28;19908;-60
2022/10/21 06:26:23;;;;;;;;;;;154.10;2252.80;;;;;;5091514;28;20707;-60
2022/10/21 06:28:49;;;;;;;;;;;154.20;2252.80;;;;;;5091619;28;19916;-60
2022/10/21 06:31:17;;;;;;;;;;;154.10;2252.80;;;;;;5091387;28;19908;-60
2022/10/21 06:33:43;;;;;;;;;;;154.20;2252.80;;;;;;5091305;28;19916;-59
2022/10/21 06:36:08;;;;;;;;;;;154.30;2252.80;;;;;;5091526;28;19913;-59
2022/10/21 06:38:35;;;;;;;;;;;154.40;2252.80;;;;;;5091631;28;20385;-61
2022/10/21 06:41:02;;;;;;;;;;;154.50;2252.80;;;;;;5091336;28;20522;-60
2022/10/21 06:43:27;;;;;;;;;;;154.50;2252.80;;;;;;5091496;28;19908;-59
2022/10/21 06:45:57;;;;;;;;;;;179.20;2252.80;;;;;;5091339;28;19915;-60
2022/10/21 06:48:23;;;;;;;;;;;179.30;2252.80;;;;;;5090932;28;19999;-60
2022/10/21 06:50:48;;;;;;;;;;;179.50;2252.80;;;;;;5091407;28;19908;-59
2022/10/21 06:53:14;;;;;;;;;;;179.60;2252.80;;;;;;5091001;28;20389;-59
2022/10/21 06:55:40;;;;;;;;;;;179.70;2252.80;;;;;;5091188;28;19912;-59
2022/10/21 06:58:05;;;;;;;;;;;179.70;2252.80;;;;;;5090943;28;20274;-60
2022/10/21 07:00:31;;;;;;;;;;;179.90;2252.80;;;;;;5091079;28;19965;-59
2022/10/21 07:02:56;;;;;;;;;;;180.00;2252.80;;;;;;5090877;28;20002;-60
2022/10/21 07:05:22;;;;;;;;;;;180.10;2252.80;;;;;;5090802;28;19912;-60
2022/10/21 07:07:47;;;;;;;;;;;204.80;2252.80;;;;;;5090937;28;19916;-59
2022/10/21 07:10:13;;;;;;;;;;;205.20;2252.80;;;;;;5090545;28;20015;-60
2022/10/21 07:12:38;;;;;;;;;;;231.10;2252.80;;;;;;5090728;28;19915;-60
2022/10/21 07:15:05;;;;;;;;;;;332.80;2329.60;;;;;;5088692;28;21284;-60
2022/10/21 07:17:30;;;;;;;;;;;359.10;2329.60;;;;;;5090687;28;19908;-60
2022/10/21 07:19:56;;;;;;;;;;;384.20;2329.60;;;;;;5090521;28;19916;-61
2022/10/21 07:22:21;;;;;;;;;;;435.30;2201.60;;;;;;5089672;28;19908;-61
2022/10/21 07:24:47;;;;;;;;;;;461.10;2099.20;;;;;;5091238;28;19909;-60
2022/10/21 07:27:12;;;;;;;;;;;486.70;1894.40;;;;;;5090270;28;19916;-61
2022/10/21 07:29:38;;;;;;;;;;;512.50;1766.40;;;;;;5090664;28;19908;-61
2022/10/21 07:32:04;;;;;;;;;;;538.40;1740.80;;;;;;5089601;28;20381;-61
2022/10/21 07:34:29;;;;;;;;;;;563.60;1689.60;;;;;;5090391;28;19912;-61
2022/10/21 07:36:55;;;;;;;;;;;614.40;1536.00;;;;;;5090514;28;19935;-61
2022/10/21 07:39:22;;;;;;;;;;;614.50;1510.40;;;;;;5090581;28;20281;-61
2022/10/21 07:41:49;;;;;;;;;;;640.10;1459.20;;;;;;5090630;28;19908;-61
2022/10/21 07:44:15;;;;;;;;;;;640.00;1433.60;;;;;;5090320;28;19958;-63
2022/10/21 07:46:41;;;;;;;;;;;665.90;1433.60;;;;;;5090482;28;19908;-63
2022/10/21 07:49:06;;;;;;;;;;;640.90;1382.40;;;;;;5090383;28;19916;-63
2022/10/21 07:51:32;;;;;;;;;;;640.60;1382.40;;;;;;5090126;28;19940;-61
2022/10/21 07:53:59;;;;;;;;;;;640.00;1433.60;;;;;;5090451;28;19998;-61
2022/10/21 07:56:28;;;;;;;;;;;666.50;1382.40;;;;;;5090291;28;19915;-60
2022/10/21 07:58:53;;;;;;;;;;;692.00;1305.60;;;;;;5090150;28;19909;-63
2022/10/21 08:01:19;;;;;;;;;;;717.40;1254.40;;;;;;5090377;28;19933;-63
2022/10/21 08:03:45;;;;;;;;;;;717.10;1280.00;;;;;;5089953;28;19912;-63
2022/10/21 08:06:11;;;;;;;;;;;717.10;1254.40;;;;;;5090433;28;20062;-63
2022/10/21 08:08:38;;;;;;;;;;;717.20;1254.40;;;;;;5090036;28;19934;-61
2022/10/21 08:11:03;;;;;;;;;;;716.80;1280.00;;;;;;5089824;28;19920;-61
2022/10/21 08:13:30;;;;;;;;;;;716.80;1280.00;;;;;;5090174;28;19953;-64
2022/10/21 08:15:56;;;;;;;;;;;717.50;1254.40;;;;;;5090021;28;19912;-63
2022/10/21 08:18:22;;;;;;;;;;;742.60;1228.80;;;;;;5090063;28;19908;-62
2022/10/21 08:20:47;;;;;;;;;;;692.00;1254.40;;;;;;5090282;28;19909;-61
2022/10/21 08:23:14;;;;;;;;;;;717.30;1228.80;;;;;;5089963;28;19909;-61
2022/10/21 08:25:50;;;;;;;;;;;768.20;1152.00;;;;;;5090118;28;19954;-61
2022/10/21 08:28:16;;;;;;;;;;;743.30;1177.60;;;;;;5089733;28;19955;-62
2022/10/21 08:30:42;;;;;;;;;;;768.60;1152.00;;;;;;5089763;28;19954;-62
2022/10/21 08:33:08;;;;;;;;;;;692.10;1228.80;;;;;;5089800;28;19908;-61
2022/10/21 08:35:34;;;;;;;;;;;666.20;1305.60;;;;;;5090198;28;20016;-63
2022/10/21 08:37:59;;;;;;;;;;;717.40;1228.80;;;;;;5090009;28;19915;-61
2022/10/21 08:40:27;;;;;;;;;;;742.40;1228.80;;;;;;5089734;28;19991;-61
2022/10/21 08:42:52;;;;;;;;;;;717.30;1228.80;;;;;;5091530;28;19915;-61
2022/10/21 08:45:18;;;;;;;;;;;742.60;1228.80;;;;;;5093743;28;19908;-61
2022/10/21 08:47:46;;;;;;;;;;;717.50;1203.20;;;;;;5093367;28;19985;-61
2022/10/21 08:50:13;;;;;;;;;;;717.50;1203.20;;;;;;5093634;28;19912;-61
2022/10/21 08:52:44;;;;;;;;;;;717.60;1228.80;;;;;;5093478;28;19908;-61
2022/10/21 08:55:22;;;;;;;;;;;717.10;1228.80;;;;;;5093917;28;20120;-61
2022/10/21 08:57:48;;;;;;;;;;;692.00;1228.80;;;;;;5093708;28;19914;-61
2022/10/21 09:00:19;;;;;;;;;;;665.60;1305.60;;;;;;5093218;28;19998;-61
2022/10/21 09:02:47;;;;;;;;;;;665.90;1305.60;;;;;;5092863;28;20330;-61
2022/10/21 09:05:20;;;;;;;;;;;640.40;1331.20;;;;;;5093039;28;20042;-59
2022/10/21 09:08:04;;;;;;;;;;;614.80;1382.40;;;;;;5092974;28;20004;-61
2022/10/21 09:10:48;;;;;;;;;;;589.60;1433.60;;;;;;5093047;28;19920;-61
2022/10/21 09:13:32;;;;;;;;;;;589.70;1433.60;;;;;;5092855;28;19912;-59
2022/10/21 09:16:07;;;;;;;;;;;563.30;1536.00;;;;;;5093173;28;20002;-61
2022/10/21 09:18:35;;;;;;;;;;;537.70;1587.20;;;;;;5092739;28;19909;-61
2022/10/21 09:21:08;;;;;;;;;;;512.70;1587.20;;;;;;5092895;28;19915;-61
2022/10/21 09:23:51;;;;;;;;;;;512.20;1612.80;;;;;;5092771;28;19909;-60
2022/10/21 09:26:26;;;;;;;;;;;487.30;1638.40;;;;;;5092925;28;19919;-60
2022/10/21 09:28:51;;;;;;;;;;;512.40;1638.40;;;;;;5092513;28;19923;-60
2022/10/21 09:31:19;;;;;;;;;;;512.40;1612.80;;;;;;5092817;28;19908;-60
2022/10/21 09:33:46;;;;;;;;;;;512.00;1638.40;;;;;;5092598;28;19958;-60
2022/10/21 09:36:23;;;;;;;;;;;512.10;1638.40;;;;;;5092384;28;20382;-61
2022/10/21 09:39:07;;;;;;;;;;;487.30;1638.40;;;;;;5092710;28;19934;-61
2022/10/21 09:41:39;;;;;;;;;;;487.30;1638.40;;;;;;5092315;28;20004;-60
2022/10/21 09:44:04;;;;;;;;;;;487.00;1664.00;;;;;;5092300;28;19908;-61
2022/10/21 09:46:30;;;;;;;;;;;486.70;1664.00;;;;;;5092484;28;19938;-60
2022/10/21 09:48:56;;;;;;;;;;;461.70;1715.20;;;;;;5091955;28;19916;-60
2022/10/21 09:51:22;;;;;;;;;;;486.40;1715.20;;;;;;5092139;28;20041;-61
2022/10/21 10:35:30;;;;;;;;;;;486.80;1587.20;;;;;;5030711;22;19941;-58
2022/10/21 10:38:01;;;;;;;;;;;486.70;1587.20;;;;;;5031481;28;19913;-58
2022/10/21 10:40:44;;;;;;;;;;;486.90;1587.20;;;;;;5031378;28;19939;-58
2022/10/21 10:43:13;;;;;;;;;;;486.90;1561.60;;;;;;5031226;28;19916;-58
2022/10/21 10:45:45;;;;;;;;;;;486.90;1561.60;;;;;;5031048;28;20015;-60
2022/10/21 10:48:17;;;;;;;;;;;487.10;1561.60;;;;;;5030982;28;19917;-59
2022/10/21 10:50:45;;;;;;;;;;;487.10;1561.60;;;;;;5030889;28;19923;-59
2022/10/21 10:53:31;;;;;;;;;;;487.10;1561.60;;;;;;5030945;28;19935;-58
2022/10/21 10:56:12;;;;;;;;;;;487.30;1561.60;;;;;;5031027;28;19909;-58
2022/10/21 10:58:40;;;;;;;;;;;487.20;1587.20;;;;;;5030903;28;19949;-58
2022/10/21 11:01:11;;;;;;;;;;;487.30;1587.20;;;;;;5030681;28;19909;-58
2022/10/21 11:03:41;;;;;;;;;;;487.30;1587.20;;;;;;5030845;28;19909;-59
2022/10/21 11:06:14;;;;;;;;;;;487.30;1561.60;;;;;;5030797;28;19920;-58
2022/10/21 11:08:41;;;;;;;;;;;487.30;1561.60;;;;;;5030697;28;19921;-59
2022/10/21 11:11:18;;;;;;;;;;;512.10;1561.60;;;;;;5030620;28;20002;-59
2022/10/21 11:13:43;;;;;;;;;;;512.00;1561.60;;;;;;5030775;28;19956;-59
2022/10/21 11:16:23;;;;;;;;;;;512.00;1561.60;;;;;;5030786;28;19938;-60
2022/10/21 11:18:58;;;;;;;;;;;512.20;1561.60;;;;;;5030691;28;19996;-59
2022/10/21 11:21:43;;;;;;;;;;;512.10;1561.60;;;;;;5030597;28;19944;-59
2022/10/21 11:24:15;;;;;;;;;;;512.40;1561.60;;;;;;5013082;28;19917;-59
2022/10/21 11:26:41;;;;;;;;;;;512.20;1536.00;;;;;;5030886;28;20290;-59
2022/10/21 11:29:09;;;;;;;;;;;512.40;1561.60;;;;;;5030144;28;19917;-60
2022/10/21 11:31:35;;;;;;;;;;;512.50;1561.60;;;;;;5030275;28;19909;-59
2022/10/21 11:34:17;;;;;;;;;;;512.70;1561.60;;;;;;5030423;28;19963;-59
2022/10/21 11:36:46;;;;;;;;;;;512.80;1536.00;;;;;;5030757;28;19948;-60
2022/10/21 11:39:34;;;;;;;;;;;512.80;1510.40;;;;;;5030571;28;20012;-58
2022/10/21 11:42:06;;;;;;;;;;;512.80;1561.60;;;;;;5030514;28;19916;-59
2022/10/21 11:44:31;;;;;;;;;;;512.90;1510.40;;;;;;5030468;28;19916;-60
2022/10/21 11:47:04;;;;;;;;;;;512.90;1510.40;;;;;;5030173;28;19909;-60
2022/10/21 11:49:48;;;;;;;;;;;512.90;1510.40;;;;;;5030433;28;19909;-58
2022/10/21 11:52:17;;;;;;;;;;;537.60;1536.00;;;;;;5030152;28;20349;-60
2022/10/21 11:54:45;;;;;;;;;;;537.70;1561.60;;;;;;5030281;28;19920;-60
2022/10/21 11:57:20;;;;;;;;;;;537.80;1536.00;;;;;;5030381;28;20000;-60
2022/10/21 11:59:51;;;;;;;;;;;537.90;1536.00;;;;;;5030174;28;20287;-59
2022/10/21 12:02:22;;;;;;;;;;;538.00;1536.00;;;;;;5030133;28;20007;-59
2022/10/21 12:04:48;;;;;;;;;;;538.10;1536.00;;;;;;5030149;28;19917;-59
2022/10/21 12:07:18;;;;;;;;;;;538.30;1536.00;;;;;;5030014;28;19928;-60
2022/10/21 12:09:49;;;;;;;;;;;538.30;1536.00;;;;;;5029916;28;19909;-58
2022/10/21 12:12:16;;;;;;;;;;;538.40;1484.80;;;;;;5029953;28;20370;-59
2022/10/21 12:14:45;;;;;;;;;;;538.50;1510.40;;;;;;5030365;28;19944;-58
2022/10/21 12:17:14;;;;;;;;;;;563.20;1536.00;;;;;;5030824;28;19909;-58
2022/10/21 12:19:40;;;;;;;;;;;563.30;1561.60;;;;;;5033958;28;20369;-58
2022/10/21 12:22:06;;;;;;;;;;;563.30;1536.00;;;;;;5033611;28;20000;-59
2022/10/21 12:24:38;;;;;;;;;;;563.20;1561.60;;;;;;5033978;28;20390;-60
2022/10/21 12:27:15;;;;;;;;;;;563.30;1536.00;;;;;;5033653;28;19920;-60
2022/10/21 12:29:51;;;;;;;;;;;563.40;1536.00;;;;;;5033790;28;20362;-59
2022/10/21 12:32:34;;;;;;;;;;;563.40;1536.00;;;;;;5033639;28;19958;-60
2022/10/21 12:35:00;;;;;;;;;;;563.30;1510.40;;;;;;5033696;28;19925;-60
2022/10/21 12:38:03;;;;;;;;;;;563.50;1536.00;;;;;;5033433;28;20281;-59
2022/10/21 12:40:28;;;;;;;;;;;563.40;1510.40;;;;;;5015811;28;19913;-59
2022/10/21 12:43:12;;;;;;;;;;;563.60;1536.00;;;;;;5033515;28;19909;-60
2022/10/21 12:45:38;;;;;;;;;;;563.60;1510.40;;;;;;5033262;28;19975;-58
2022/10/21 12:48:25;;;;;;;;;;;563.60;1510.40;;;;;;5033088;28;20374;-58
2022/10/21 12:50:59;;;;;;;;;;;563.60;1510.40;;;;;;5033349;28;19909;-58
2022/10/21 12:53:32;;;;;;;;;;;563.60;1484.80;;;;;;5033126;28;19953;-59
2022/10/21 12:55:59;;;;;;;;;;;563.50;1510.40;;;;;;5033183;28;19909;-59
2022/10/21 12:58:34;;;;;;;;;;;563.60;1484.80;;;;;;5032971;28;20000;-59
2022/10/21 13:01:01;;;;;;;;;;;563.70;1484.80;;;;;;5033029;28;20040;-59
2022/10/21 13:03:47;;;;;;;;;;;563.60;1459.20;;;;;;5033036;28;20421;-59
2022/10/21 13:06:12;;;;;;;;;;;563.60;1484.80;;;;;;5032650;28;19921;-59
2022/10/21 13:08:38;;;;;;;;;;;563.60;1484.80;;;;;;5033385;28;20019;-60
2022/10/21 13:11:06;;;;;;;;;;;563.70;1484.80;;;;;;5032658;28;19916;-59
2022/10/21 13:13:32;;;;;;;;;;;563.60;1484.80;;;;;;5033216;28;19913;-59
2022/10/21 13:15:58;;;;;;;;;;;563.60;1484.80;;;;;;5032793;28;20409;-59
2022/10/21 13:18:42;;;;;;;;;;;563.50;1459.20;;;;;;5032813;28;19963;-59
2022/10/21 13:21:21;;;;;;;;;;;563.50;1459.20;;;;;;5032755;28;19909;-59
2022/10/21 13:23:49;;;;;;;;;;;563.60;1459.20;;;;;;5032570;28;19909;-59
2022/10/21 13:26:18;;;;;;;;;;;563.60;1484.80;;;;;;5032529;28;19909;-59
2022/10/21 13:29:16;;;;;;;;;;;563.60;1459.20;;;;;;5031119;28;19921;-60
2022/10/21 13:31:42;;;;;;;;;;;563.60;1459.20;;;;;;4991110;28;19914;-58
2022/10/21 13:34:23;;;;;;;;;;;563.40;1433.60;;;;;;4990705;28;19972;-58
2022/10/21 13:36:51;;;;;;;;;;;563.60;1433.60;;;;;;4991056;28;20378;-58
2022/10/21 13:39:22;;;;;;;;;;;563.40;1433.60;;;;;;4990834;28;19910;-59
2022/10/21 13:41:55;;;;;;;;;;;563.50;1433.60;;;;;;4990652;28;20339;-58
2022/10/21 13:44:26;;;;;;;;;;;563.60;1433.60;;;;;;4990940;28;19917;-59
2022/10/21 13:46:51;;;;;;;;;;;563.50;1433.60;;;;;;4990893;28;19910;-61
2022/10/21 13:49:27;;;;;;;;;;;563.40;1433.60;;;;;;4990658;28;19917;-58
2022/10/21 13:51:52;;;;;;;;;;;563.30;1408.00;;;;;;4990815;28;20000;-59
2022/10/21 13:54:18;;;;;;;;;;;563.30;1433.60;;;;;;4990731;28;20891;-58
2022/10/21 13:56:44;;;;;;;;;;;563.30;1459.20;;;;;;4990549;28;19942;-58
2022/10/21 13:59:23;;;;;;;;;;;563.30;1408.00;;;;;;4990722;28;19910;-60
2022/10/21 14:01:53;;;;;;;;;;;563.30;1408.00;;;;;;4987488;28;20531;-58
2022/10/21 14:04:29;;;;;;;;;;;563.30;1408.00;;;;;;4988621;28;19924;-59
2022/10/21 14:07:03;;;;;;;;;;;563.20;1408.00;;;;;;5003290;28;19958;-59
2022/10/21 14:09:39;;;;;;;;;;;563.20;1408.00;;;;;;5030514;28;19944;-58
2022/10/21 14:12:07;;;;;;;;;;;538.50;1408.00;;;;;;5030144;28;19913;-59
2022/10/21 14:14:34;;;;;;;;;;;538.50;1408.00;;;;;;5030174;28;19948;-59
2022/10/21 14:17:07;;;;;;;;;;;538.50;1433.60;;;;;;5030301;28;19909;-58
2022/10/21 14:19:36;;;;;;;;;;;538.40;1459.20;;;;;;5030255;28;20691;-58
2022/10/21 14:22:02;;;;;;;;;;;538.40;1484.80;;;;;;5030289;28;20317;-58
2022/10/21 14:24:27;;;;;;;;;;;538.30;1484.80;;;;;;5031918;28;19917;-58
2022/10/21 14:26:54;;;;;;;;;;;538.20;1510.40;;;;;;5031858;28;20350;-59
2022/10/21 14:29:20;;;;;;;;;;;538.10;1536.00;;;;;;5031508;28;19928;-59
2022/10/21 14:31:46;;;;;;;;;;;538.00;1536.00;;;;;;5031548;28;19909;-58